Time;durP1;ratioP1;P1;durP2;ratioP2;P2;SDS_P1;SDS_P2;PMS_P1;PMS_P2;Temp;Humidity;BMP_temperature;BMP_pressure;BME280_temperature;BME280_humidity;BME280_pressure;Samples;Min_cycle;Max_cycle;Signal;HPM_P1;HPM_P2
2023/09/26 00:00:38;;;;;;;1.10;0.90;;;;;;;12.57;83.39;100781.90;106686;1270;24349;-72
2023/09/26 00:03:26;;;;;;;1.50;1.00;;;;;;;12.57;83.47;100782.09;106521;1269;99966;-72
2023/09/26 00:05:55;;;;;;;1.60;0.90;;;;;;;12.56;83.51;100780.02;106921;1269;24402;-73
2023/09/26 00:08:25;;;;;;;2.80;1.20;;;;;;;12.55;83.65;100784.97;106671;1270;22527;-73
2023/09/26 00:10:54;;;;;;;3.90;0.90;;;;;;;12.52;83.60;100783.13;106711;1271;100262;-72
2023/09/26 00:13:22;;;;;;;1.50;0.90;;;;;;;12.52;83.67;100785.76;106477;1270;25316;-73
2023/09/26 00:15:51;;;;;;;2.30;1.00;;;;;;;12.51;83.71;100784.92;106503;1269;99439;-73
2023/09/26 00:18:20;;;;;;;3.00;1.10;;;;;;;12.49;83.71;100785.88;106563;1270;25152;-73
2023/09/26 00:20:48;;;;;;;3.00;1.10;;;;;;;12.47;83.68;100786.48;106510;1269;25357;-73
2023/09/26 00:23:17;;;;;;;2.20;1.00;;;;;;;12.47;83.85;100790.34;106551;1269;99403;-73
2023/09/26 00:25:45;;;;;;;1.20;0.90;;;;;;;12.46;83.83;100786.52;106988;1270;24376;-72
2023/09/26 00:28:14;;;;;;;1.90;0.60;;;;;;;12.48;83.90;100789.77;106927;1271;99787;-72
2023/09/26 00:30:43;;;;;;;1.30;0.80;;;;;;;12.48;83.89;100786.59;106776;1270;23922;-72
2023/09/26 00:33:12;;;;;;;2.40;0.70;;;;;;;12.49;83.96;100789.88;106664;1270;22524;-73
2023/09/26 00:35:40;;;;;;;2.40;0.70;;;;;;;12.53;84.18;100792.01;106695;1271;99113;-72
2023/09/26 00:38:09;;;;;;;1.00;0.80;;;;;;;12.61;84.34;100791.15;106864;1269;25334;-72
2023/09/26 00:40:40;;;;;;;1.40;0.70;;;;;;;12.72;84.57;100790.58;106559;1272;99269;-72
2023/09/26 00:43:09;;;;;;;1.70;0.80;;;;;;;12.85;84.56;100788.69;106503;1270;22537;-72
2023/09/26 00:45:38;;;;;;;2.00;0.90;;;;;;;12.98;84.44;100791.14;106763;1270;100028;-71
2023/09/26 00:48:07;;;;;;;2.20;1.20;;;;;;;13.10;84.40;100790.45;106539;1270;22555;-72
2023/09/26 00:50:35;;;;;;;1.10;0.70;;;;;;;13.22;84.15;100788.74;106428;1270;25290;-71
2023/09/26 00:53:04;;;;;;;1.30;0.80;;;;;;;13.33;84.15;100789.40;106703;1270;99753;-70
2023/09/26 00:55:33;;;;;;;1.60;1.00;;;;;;;13.41;84.15;100787.83;107039;1270;23007;-71
2023/09/26 00:58:02;;;;;;;2.40;0.90;;;;;;;13.48;83.91;100784.88;106501;1270;100046;-70
2023/09/26 01:00:31;;;;;;;3.30;1.10;;;;;;;13.56;83.92;100785.23;106427;1270;24059;-70
2023/09/26 01:03:00;;;;;;;1.60;1.00;;;;;;;13.64;83.83;100779.66;106668;1270;23859;-70
2023/09/26 01:05:29;;;;;;;1.00;0.60;;;;;;;13.71;83.73;100782.73;106690;1269;99576;-70
2023/09/26 01:07:58;;;;;;;2.20;1.30;;;;;;;13.75;83.65;100784.26;106575;1270;22523;-70
2023/09/26 01:10:27;;;;;;;1.30;0.60;;;;;;;13.79;83.60;100782.70;106421;1270;99946;-70
2023/09/26 01:12:56;;;;;;;1.40;0.80;;;;;;;13.82;83.56;100786.75;106433;1270;25425;-69
2023/09/26 01:15:33;;;;;;;2.00;0.70;;;;;;;13.85;83.42;100780.86;106574;1270;101426;-69
2023/09/26 01:18:24;;;;;;;2.20;1.00;;;;;;;13.87;83.29;100784.25;106521;1269;22553;-70
2023/09/26 01:20:53;;;;;;;1.70;1.30;;;;;;;13.89;83.29;100786.08;106468;1261;22540;-69
2023/09/26 01:23:24;;;;;;;0.90;0.70;;;;;;;13.92;83.26;100784.58;106701;1270;99835;-69
2023/09/26 01:25:54;;;;;;;1.60;0.70;;;;;;;13.95;83.29;100781.84;106513;1270;25605;-68
2023/09/26 01:28:22;;;;;;;3.20;1.10;;;;;;;13.98;83.11;100781.68;106569;1270;99855;-69
2023/09/26 01:30:51;;;;;;;1.40;0.80;;;;;;;14.01;83.07;100778.91;106791;1269;23872;-69
2023/09/26 01:33:21;;;;;;;0.80;0.60;;;;;;;14.04;83.05;100772.48;106485;1271;100049;-68
2023/09/26 01:35:52;;;;;;;1.40;0.80;;;;;;;14.06;82.94;100768.54;106633;1270;22653;-69
2023/09/26 01:38:23;;;;;;;1.80;1.00;;;;;;;14.09;82.96;100771.17;106572;1270;25360;-68
2023/09/26 01:40:52;;;;;;;1.10;0.80;;;;;;;14.11;82.85;100770.77;106600;1269;99898;-68
2023/09/26 01:43:21;;;;;;;2.30;1.40;;;;;;;14.15;82.88;100769.92;106572;1269;22636;-68
2023/09/26 01:45:50;;;;;;;1.60;0.80;;;;;;;14.18;82.79;100772.39;106998;1262;99994;-68
2023/09/26 01:48:19;;;;;;;1.60;0.90;;;;;;;14.21;82.76;100771.54;106842;1270;25494;-68
2023/09/26 01:50:48;;;;;;;1.80;0.80;;;;;;;14.24;82.84;100769.48;106551;1271;22547;-68
2023/09/26 01:53:16;;;;;;;1.90;0.70;;;;;;;14.27;82.68;100760.59;106710;1269;99379;-68
2023/09/26 01:55:45;;;;;;;1.90;0.80;;;;;;;14.29;82.70;100762.23;107002;1270;22653;-68
2023/09/26 01:58:14;;;;;;;2.90;1.60;;;;;;;14.31;82.60;100757.77;106776;1270;99933;-68
2023/09/26 02:00:42;;;;;;;1.70;0.80;;;;;;;14.33;82.60;100754.71;106658;1270;25269;-68
2023/09/26 02:03:11;;;;;;;1.70;0.90;;;;;;;14.35;82.47;100753.75;106707;1270;25485;-68
2023/09/26 02:05:40;;;;;;;1.40;0.70;;;;;;;14.37;82.55;100756.45;107114;1270;99369;-68
2023/09/26 02:08:09;;;;;;;0.90;0.70;;;;;;;14.37;82.35;100754.00;106531;1270;25242;-68
2023/09/26 02:10:37;;;;;;;2.10;0.70;;;;;;;14.37;82.25;100752.25;106520;1267;99827;-68
2023/09/26 02:13:06;;;;;;;0.90;0.60;;;;;;;14.36;82.24;100751.07;106284;1270;22535;-68
2023/09/26 02:15:38;;;;;;;2.00;0.80;;;;;;;14.35;82.32;100751.30;106554;1269;103561;-68
2023/09/26 02:18:07;;;;;;;1.30;0.90;;;;;;;14.34;82.21;100746.27;106491;1273;25251;-68
2023/09/26 02:20:35;;;;;;;1.60;0.80;;;;;;;14.33;82.17;100745.42;106770;1270;26581;-68
2023/09/26 02:23:04;;;;;;;1.10;0.60;;;;;;;14.32;82.12;100743.38;106602;1271;99850;-68
2023/09/26 02:25:33;;;;;;;3.60;1.50;;;;;;;14.32;82.04;100741.09;106677;1270;24391;-68
2023/09/26 02:28:02;;;;;;;1.80;0.90;;;;;;;14.33;82.07;100739.80;106608;1270;99597;-68
2023/09/26 02:30:31;;;;;;;1.70;1.00;;;;;;;14.36;82.00;100741.09;106714;1270;22903;-68
2023/09/26 02:33:00;;;;;;;1.40;0.70;;;;;;;14.38;82.00;100741.31;106666;1270;24016;-68
2023/09/26 02:35:28;;;;;;;0.90;0.60;;;;;;;14.41;81.96;100740.66;106394;1274;99794;-68
2023/09/26 02:37:57;;;;;;;1.80;0.70;;;;;;;14.44;82.07;100741.03;106810;1269;25307;-68
2023/09/26 02:40:25;;;;;;;1.10;0.50;;;;;;;14.47;81.93;100738.26;106502;1270;100237;-66
2023/09/26 02:42:55;;;;;;;1.40;0.50;;;;;;;14.50;81.85;100736.55;106573;1264;25343;-66
2023/09/26 02:45:26;;;;;;;1.10;0.60;;;;;;;14.52;81.77;100735.77;106415;1270;100018;-67
2023/09/26 02:47:55;;;;;;;2.00;1.40;;;;;;;14.55;81.77;100733.02;106840;1268;22565;-66
2023/09/26 02:50:23;;;;;;;0.90;0.80;;;;;;;14.57;81.77;100734.89;106732;1267;22543;-67
2023/09/26 02:52:52;;;;;;;1.80;0.90;;;;;;;14.58;81.75;100740.25;106407;1270;99850;-66
2023/09/26 02:55:21;;;;;;;1.00;0.70;;;;;;;14.60;81.79;100738.95;106644;1270;25795;-67
2023/09/26 02:57:50;;;;;;;1.40;0.90;;;;;;;14.63;81.77;100735.64;106719;1270;99545;-67
2023/09/26 03:00:19;;;;;;;1.00;0.60;;;;;;;14.66;81.72;100733.40;106619;1269;22595;-67
2023/09/26 03:02:48;;;;;;;1.80;0.90;;;;;;;14.69;81.78;100734.64;106403;1261;22583;-67
2023/09/26 03:05:18;;;;;;;2.50;0.70;;;;;;;14.71;81.78;100735.41;106833;1270;99236;-68
2023/09/26 03:07:46;;;;;;;1.10;0.80;;;;;;;14.75;81.78;100727.02;106490;1270;22855;-67
2023/09/26 03:10:16;;;;;;;3.20;1.10;;;;;;;14.77;81.60;100726.54;106492;1270;99837;-67
2023/09/26 03:12:46;;;;;;;0.80;0.60;;;;;;;14.79;81.57;100725.56;106609;1255;23927;-67
2023/09/26 03:15:15;;;;;;;1.60;1.00;;;;;;;14.81;81.51;100724.08;106727;1273;22537;-67
2023/09/26 03:17:47;;;;;;;2.30;1.10;;;;;;;14.83;81.58;100723.10;106521;1270;22545;-69
2023/09/26 03:20:16;;;;;;;2.20;1.00;;;;;;;14.84;81.57;100719.87;106504;1270;22543;-67
2023/09/26 03:22:45;;;;;;;2.20;1.10;;;;;;;14.85;81.42;100717.90;106392;1270;99273;-66
2023/09/26 03:25:14;;;;;;;1.00;0.50;;;;;;;14.86;81.42;100715.79;110193;1271;22052;-67
2023/09/26 03:27:46;;;;;;;1.10;0.70;;;;;;;14.87;81.38;100719.23;110162;1270;99954;-68
2023/09/26 03:30:15;;;;;;;3.10;0.80;;;;;;;14.88;81.28;100714.60;109997;1270;22527;-66
2023/09/26 03:32:44;;;;;;;1.00;0.80;;;;;;;14.90;81.28;100712.40;106590;1270;22522;-66
2023/09/26 03:35:12;;;;;;;1.90;0.60;;;;;;;14.93;81.22;100713.85;107672;1271;101239;-67
2023/09/26 03:37:41;;;;;;;2.50;1.50;;;;;;;14.94;81.15;100714.14;106497;1270;23833;-67
2023/09/26 03:40:10;;;;;;;1.50;0.70;;;;;;;14.95;81.19;100708.97;106632;1270;99470;-68
2023/09/26 03:42:43;;;;;;;1.80;0.70;;;;;;;14.97;81.24;100707.48;106735;1271;24202;-65
2023/09/26 03:45:27;;;;;;;3.00;0.90;;;;;;;14.99;81.18;100709.67;106628;1273;99459;-67
2023/09/26 03:47:56;;;;;;;3.30;0.90;;;;;;;15.00;81.19;100709.27;106664;1270;24137;-67
2023/09/26 03:50:25;;;;;;;1.70;1.10;;;;;;;15.00;81.15;100706.61;108250;1271;22751;-66
2023/09/26 03:52:54;;;;;;;2.80;1.50;;;;;;;15.02;81.13;100710.61;106349;1271;100226;-67
2023/09/26 03:55:24;;;;;;;1.90;1.20;;;;;;;15.03;81.19;100711.23;106483;1271;24240;-66
2023/09/26 03:57:52;;;;;;;2.40;0.80;;;;;;;15.04;81.08;100705.23;106383;1271;99936;-67
2023/09/26 04:00:25;;;;;;;2.50;0.80;;;;;;;15.05;81.12;100702.89;106537;1266;25259;-67
2023/09/26 04:02:56;;;;;;;2.10;1.20;;;;;;;15.06;81.08;100699.67;106547;1271;22524;-67
2023/09/26 04:05:25;;;;;;;1.60;1.00;;;;;;;15.06;81.02;100699.15;106509;1271;99262;-67
2023/09/26 04:07:54;;;;;;;2.90;0.90;;;;;;;15.08;80.97;100697.52;106501;1272;23922;-67
2023/09/26 04:10:22;;;;;;;2.50;1.10;;;;;;;15.08;80.91;100695.56;106375;1272;99257;-66
2023/09/26 04:12:51;;;;;;;3.80;1.00;;;;;;;15.08;80.72;100699.42;106757;1268;22631;-67
2023/09/26 04:15:20;;;;;;;3.30;1.00;;;;;;;15.08;80.86;100701.73;106624;1269;99393;-67
2023/09/26 04:17:49;;;;;;;4.10;1.20;;;;;;;15.07;80.81;100697.89;106936;1269;25291;-67
2023/09/26 04:20:19;;;;;;;2.80;1.10;;;;;;;15.06;80.85;100696.19;106779;1269;22630;-67
2023/09/26 04:23:05;;;;;;;1.60;0.90;;;;;;;15.05;80.74;100693.42;106404;1269;100800;-67
2023/09/26 04:25:34;;;;;;;2.60;1.30;;;;;;;15.05;80.80;100692.91;106695;1268;22580;-67
2023/09/26 04:28:04;;;;;;;2.10;1.00;;;;;;;15.05;80.74;100690.98;106605;1269;100062;-67
2023/09/26 04:30:37;;;;;;;1.80;1.10;;;;;;;15.06;80.68;100691.82;106690;1269;22523;-66
2023/09/26 04:33:08;;;;;;;3.90;1.80;;;;;;;15.06;80.67;100689.36;106849;1269;25227;-66
2023/09/26 04:35:37;;;;;;;3.90;1.50;;;;;;;15.07;80.66;100686.86;106574;1269;99659;-67
2023/09/26 04:38:06;;;;;;;3.50;1.50;;;;;;;15.07;80.65;100688.41;106839;1269;25306;-66
2023/09/26 04:40:34;;;;;;;2.40;1.30;;;;;;;15.09;80.68;100688.34;106849;1269;99386;-66
2023/09/26 04:43:04;;;;;;;3.40;1.70;;;;;;;15.11;80.69;100687.20;106716;1269;22576;-66
2023/09/26 04:45:34;;;;;;;4.10;1.00;;;;;;;15.12;80.64;100687.46;106773;1269;99433;-67
2023/09/26 04:48:03;;;;;;;2.10;1.30;;;;;;;15.15;80.57;100686.09;106882;1269;22533;-66
2023/09/26 04:50:32;;;;;;;3.00;1.40;;;;;;;15.16;80.61;100685.48;106563;1272;22761;-67
2023/09/26 04:53:00;;;;;;;1.90;1.40;;;;;;;15.18;80.69;100689.65;106543;1270;99423;-62
2023/09/26 04:55:29;;;;;;;2.80;1.50;;;;;;;15.18;80.75;100686.64;106793;1269;25373;-62
2023/09/26 04:57:58;;;;;;;3.60;1.80;;;;;;;15.20;80.80;100687.90;106655;1269;99447;-62
2023/09/26 05:00:29;;;;;;;3.70;1.20;;;;;;;15.24;80.79;100690.54;106984;1269;22532;-62
2023/09/26 05:02:58;;;;;;;1.60;1.30;;;;;;;15.26;80.79;100687.46;106808;1270;24445;-62
2023/09/26 05:05:27;;;;;;;2.50;1.20;;;;;;;15.28;80.89;100683.83;106653;1269;99268;-61
2023/09/26 05:07:56;;;;;;;3.70;2.00;;;;;;;15.32;80.80;100681.88;106815;1269;22551;-62
2023/09/26 05:10:25;;;;;;;1.60;1.30;;;;;;;15.34;80.84;100679.81;106697;1269;99312;-62
2023/09/26 05:12:53;;;;;;;3.20;1.30;;;;;;;15.36;80.95;100673.39;106551;1269;25301;-62
2023/09/26 05:15:22;;;;;;;2.20;1.30;;;;;;;15.39;80.93;100673.29;106697;1270;99474;-61
2023/09/26 05:17:52;;;;;;;2.20;1.10;;;;;;;15.41;80.83;100678.25;106779;1269;24355;-62
2023/09/26 05:20:21;;;;;;;2.60;1.10;;;;;;;15.42;80.94;100675.70;106872;1270;25261;-52
2023/09/26 05:22:50;;;;;;;3.60;2.00;;;;;;;15.48;81.02;100677.02;106774;1268;99860;-56
2023/09/26 05:25:19;;;;;;;2.50;1.00;;;;;;;15.52;81.01;100677.69;106493;1269;332967;-58
2023/09/26 05:27:48;;;;;;;1.20;0.90;;;;;;;15.57;80.99;100681.14;106581;1270;99672;-58
2023/09/26 05:30:16;;;;;;;4.10;1.20;;;;;;;15.60;81.05;100680.22;106676;1269;24498;-58
2023/09/26 05:32:46;;;;;;;1.60;0.80;;;;;;;15.64;81.02;100683.19;107082;1269;24241;-57
2023/09/26 05:35:15;;;;;;;1.50;1.40;;;;;;;15.67;81.04;100683.39;106628;1270;101041;-57
2023/09/26 05:37:44;;;;;;;4.70;1.60;;;;;;;15.71;81.05;100684.59;106779;1269;22527;-57
2023/09/26 05:40:13;;;;;;;3.40;1.70;;;;;;;15.77;81.00;100689.38;107463;1270;100740;-54
2023/09/26 05:42:41;;;;;;;3.60;1.80;;;;;;;15.83;81.04;100687.64;106523;1269;25544;-54
2023/09/26 05:45:11;;;;;;;2.70;2.20;;;;;;;15.89;81.13;100682.59;106743;1269;25304;-53
2023/09/26 05:47:40;;;;;;;3.30;1.60;;;;;;;15.95;81.04;100683.33;106983;1269;100138;-53
2023/09/26 05:50:09;;;;;;;4.30;0.90;;;;;;;16.01;81.10;100682.98;106819;1270;24195;-52
2023/09/26 05:52:38;;;;;;;2.80;1.10;;;;;;;16.08;81.07;100687.70;106950;1269;99276;-51
2023/09/26 05:55:07;;;;;;;2.60;1.20;;;;;;;16.14;81.03;100684.92;107004;1254;22529;-46
2023/09/26 05:57:36;;;;;;;7.80;3.20;;;;;;;16.22;81.01;100686.06;106768;1271;100949;-50
2023/09/26 06:00:11;;;;;;;4.90;2.30;;;;;;;16.28;80.85;100680.59;110400;1263;22270;-52
2023/09/26 06:02:40;;;;;;;1.50;1.10;;;;;;;16.37;80.84;100682.61;107437;1270;23134;-49
2023/09/26 06:05:13;;;;;;;2.50;1.00;;;;;;;16.45;80.84;100682.69;106983;1269;99246;-55
2023/09/26 06:07:42;;;;;;;3.40;1.40;;;;;;;16.50;80.62;100683.62;106668;1269;22655;-56
2023/09/26 06:10:11;;;;;;;2.10;1.20;;;;;;;16.55;80.59;100683.13;106756;1269;99901;-56
2023/09/26 06:12:41;;;;;;;2.60;1.00;;;;;;;16.60;80.53;100686.36;106786;1269;24225;-52
2023/09/26 06:15:10;;;;;;;2.50;1.10;;;;;;;16.64;80.47;100688.05;106796;1269;25325;-54
2023/09/26 06:17:40;;;;;;;2.40;1.10;;;;;;;16.67;80.31;100689.66;106663;1270;99653;-56
2023/09/26 06:20:09;;;;;;;5.40;2.00;;;;;;;16.69;80.35;100689.72;106740;1269;22525;-56
2023/09/26 06:22:38;;;;;;;2.00;1.10;;;;;;;16.71;80.22;100687.30;106850;1269;99863;-56
2023/09/26 06:25:07;;;;;;;2.80;1.10;;;;;;;16.73;80.20;100689.15;106727;1269;23531;-54
2023/09/26 06:27:37;;;;;;;4.10;1.50;;;;;;;16.76;80.10;100690.89;106549;1272;99572;-56
2023/09/26 06:30:10;;;;;;;2.40;1.40;;;;;;;16.83;80.10;100689.52;106735;1269;25482;-55
2023/09/26 06:32:38;;;;;;;2.70;1.40;;;;;;;16.89;80.00;100685.83;106592;1269;25362;-63
2023/09/26 06:35:08;;;;;;;2.10;1.30;;;;;;;16.90;80.00;100684.00;106797;1269;100163;-61
2023/09/26 06:37:37;;;;;;;2.10;1.40;;;;;;;16.94;80.05;100683.91;106721;1270;22540;-58
2023/09/26 06:40:07;;;;;;;1.90;1.30;;;;;;;17.00;79.97;100684.11;106664;1269;99905;-57
2023/09/26 06:42:35;;;;;;;3.70;0.80;;;;;;;17.07;79.96;100683.84;107024;1266;22536;-57
2023/09/26 06:45:09;;;;;;;3.30;1.10;;;;;;;17.14;79.83;100686.95;106635;1261;23930;-58
2023/09/26 06:47:38;;;;;;;4.70;1.10;;;;;;;17.20;79.84;100691.34;106641;1269;100283;-55
2023/09/26 06:50:10;;;;;;;1.80;1.00;;;;;;;17.24;79.75;100687.95;106773;1269;22640;-56
2023/09/26 06:52:39;;;;;;;2.80;1.10;;;;;;;17.25;79.58;100686.33;106575;1270;99280;-53
2023/09/26 06:55:11;;;;;;;3.40;1.30;;;;;;;17.30;79.62;100683.56;106751;1269;22700;-56
2023/09/26 06:57:40;;;;;;;2.20;0.90;;;;;;;17.35;79.54;100689.06;106805;1269;100026;-57
2023/09/26 07:00:16;;;;;;;2.50;1.40;;;;;;;17.35;79.37;100685.90;106706;1269;23921;-58
2023/09/26 07:02:47;;;;;;;3.60;1.20;;;;;;;17.36;79.36;100686.91;106798;1264;22665;-58
2023/09/26 07:05:16;;;;;;;3.50;1.50;;;;;;;17.36;79.34;100687.05;106952;1269;99816;-58
2023/09/26 07:07:46;;;;;;;1.50;1.20;;;;;;;17.34;79.21;100685.23;106624;1271;22524;-58
2023/09/26 07:10:14;;;;;;;3.40;1.20;;;;;;;17.33;79.00;100688.16;106820;1269;99481;-58
2023/09/26 07:12:44;;;;;;;4.20;2.10;;;;;;;17.24;78.87;100691.65;106766;1270;25383;-58
2023/09/26 07:15:13;;;;;;;5.20;2.30;;;;;;;17.22;78.92;100691.23;106622;1270;22521;-58
2023/09/26 07:17:42;;;;;;;4.60;2.30;;;;;;;17.23;78.79;100688.00;106719;1269;99643;-58
2023/09/26 07:20:13;;;;;;;9.80;3.10;;;;;;;17.25;78.77;100691.77;107086;1269;25412;-59
2023/09/26 07:22:44;;;;;;;5.50;2.30;;;;;;;17.29;78.82;100692.10;106574;1269;99324;-59
2023/09/26 07:25:13;;;;;;;5.80;3.20;;;;;;;17.38;78.84;100692.58;106777;1269;22540;-59
2023/09/26 07:27:43;;;;;;;4.10;1.90;;;;;;;17.44;78.75;100694.14;106475;1269;100019;-59
2023/09/26 07:30:15;;;;;;;7.30;2.40;;;;;;;17.52;78.63;100693.48;106660;1269;23905;-58
2023/09/26 07:32:43;;;;;;;6.40;2.70;;;;;;;17.56;78.49;100692.56;106645;1270;25368;-58
2023/09/26 07:35:13;;;;;;;5.20;2.10;;;;;;;17.60;78.52;100687.73;106601;1269;99260;-59
2023/09/26 07:37:42;;;;;;;5.20;1.80;;;;;;;17.66;78.47;100688.20;106771;1269;25400;-59
2023/09/26 07:40:11;;;;;;;3.10;1.50;;;;;;;17.72;78.43;100684.21;106967;1269;100705;-59
2023/09/26 07:42:41;;;;;;;2.10;1.20;;;;;;;17.74;78.45;100685.29;106770;1269;22598;-59
2023/09/26 07:45:11;;;;;;;2.70;1.10;;;;;;;17.75;78.18;100688.05;106770;1269;25491;-59
2023/09/26 07:47:42;;;;;;;3.20;1.60;;;;;;;17.71;78.11;100689.35;106871;1269;99664;-57
2023/09/26 07:50:11;;;;;;;2.80;1.60;;;;;;;17.64;78.04;100685.14;106500;1269;22524;-57
2023/09/26 07:52:40;;;;;;;1.80;1.20;;;;;;;17.61;78.04;100687.61;106690;1270;99853;-57
2023/09/26 07:55:09;;;;;;;4.00;1.50;;;;;;;17.56;77.83;100690.21;106731;1262;22559;-56
2023/09/26 07:57:38;;;;;;;2.40;1.50;;;;;;;17.49;77.72;100691.90;106623;1269;99418;-63
2023/09/26 08:00:11;;;;;;;2.10;1.20;;;;;;;17.44;77.99;100688.66;106927;1269;22633;-59
2023/09/26 08:02:40;;;;;;;2.00;1.10;;;;;;;17.49;78.11;100691.91;106782;1269;22617;-57
2023/09/26 08:05:09;;;;;;;3.30;1.80;;;;;;;17.54;78.10;100694.58;106720;1270;99347;-59
2023/09/26 08:07:42;;;;;;;1.60;1.10;;;;;;;17.58;78.00;100696.79;106934;1269;22533;-56
2023/09/26 08:10:11;;;;;;;2.30;1.30;;;;;;;17.63;78.08;100693.34;106679;1263;99847;-56
2023/09/26 08:12:41;;;;;;;6.20;2.60;;;;;;;17.64;77.92;100693.08;106648;1269;25582;-61
2023/09/26 08:15:11;;;;;;;5.90;1.90;;;;;;;17.68;78.09;100689.49;107007;1269;24250;-57
2023/09/26 08:17:40;;;;;;;4.30;1.70;;;;;;;17.76;78.08;100685.87;106506;1269;100375;-57
2023/09/26 08:20:09;;;;;;;2.80;1.70;;;;;;;17.80;77.89;100690.08;109851;1269;22523;-58
2023/09/26 08:22:38;;;;;;;3.10;1.80;;;;;;;17.83;77.85;100684.91;108783;1269;99213;-57
2023/09/26 08:25:08;;;;;;;3.40;1.70;;;;;;;17.89;77.81;100684.75;106933;1269;24420;-57
2023/09/26 08:27:37;;;;;;;2.80;1.40;;;;;;;17.92;77.86;100685.23;107086;1270;101592;-58
2023/09/26 08:30:06;;;;;;;2.50;1.50;;;;;;;18.00;77.87;100686.65;106494;1270;24250;-58
2023/09/26 08:32:35;;;;;;;1.90;1.40;;;;;;;18.11;77.88;100684.72;107488;1269;22527;-58
2023/09/26 08:35:08;;;;;;;2.00;1.30;;;;;;;18.28;77.94;100683.13;110378;1273;99401;-58
2023/09/26 08:37:40;;;;;;;2.10;1.40;;;;;;;18.41;77.93;100678.75;109924;1263;24736;-58
2023/09/26 08:40:11;;;;;;;1.70;1.20;;;;;;;18.56;77.98;100672.02;106583;1270;100502;-62
2023/09/26 08:42:42;;;;;;;2.40;1.50;;;;;;;18.75;77.91;100671.46;106741;1269;22558;-57
2023/09/26 08:45:11;;;;;;;2.70;1.60;;;;;;;18.94;77.80;100669.09;106994;1265;24305;-55
2023/09/26 08:47:43;;;;;;;4.50;2.30;;;;;;;19.18;77.84;100671.92;106710;1265;99565;-55
2023/09/26 08:50:12;;;;;;;3.50;2.00;;;;;;;19.41;77.76;100672.48;106573;1269;23706;-57
2023/09/26 08:52:44;;;;;;;5.00;2.40;;;;;;;19.60;77.52;100674.14;106732;1268;99860;-59
2023/09/26 08:55:13;;;;;;;5.70;2.30;;;;;;;19.72;77.25;100675.84;106644;1269;25363;-58
2023/09/26 08:57:43;;;;;;;7.60;2.90;;;;;;;19.89;77.36;100676.39;106659;1261;100491;-62
2023/09/26 09:00:13;;;;;;;2.60;1.90;;;;;;;20.13;77.29;100675.70;107036;1269;22730;-57
2023/09/26 09:02:41;;;;;;;3.60;2.30;;;;;;;20.27;76.84;100673.11;106791;1269;22663;-60
2023/09/26 09:05:10;;;;;;;4.70;2.00;;;;;;;20.31;76.63;100674.40;106805;1269;99345;-58
2023/09/26 09:07:40;;;;;;;6.10;1.70;;;;;;;20.40;76.70;100674.70;106348;1269;24363;-60
2023/09/26 09:10:11;;;;;;;5.00;1.60;;;;;;;20.51;76.34;100673.17;106631;1269;99257;-58
2023/09/26 09:12:41;;;;;;;6.80;2.00;;;;;;;20.63;76.36;100675.13;106536;1269;24920;-58
2023/09/26 09:15:20;;;;;;;7.50;2.50;;;;;;;20.70;76.12;100673.34;106861;1266;23543;-59
2023/09/26 09:17:52;;;;;;;6.10;1.90;;;;;;;20.75;75.79;100674.39;106764;1270;25465;-60
2023/09/26 09:20:47;;;;;;;6.10;2.90;;;;;;;20.71;75.50;100675.71;106669;1269;22579;-59
2023/09/26 09:23:15;;;;;;;9.40;2.20;;;;;;;20.70;75.37;100673.70;106511;1270;99433;-56
2023/09/26 09:25:44;;;;;;;4.60;1.50;;;;;;;20.79;75.26;100671.95;106780;1272;24968;-57
2023/09/26 09:28:20;;;;;;;1.80;1.40;;;;;;;20.79;74.98;100671.06;106711;1265;99954;-58
2023/09/26 09:30:50;;;;;;;4.40;1.50;;;;;;;20.84;74.75;100669.64;106691;1269;23760;-58
2023/09/26 09:33:19;;;;;;;9.10;2.60;;;;;;;20.86;74.53;100668.43;106856;1262;22548;-57
2023/09/26 09:35:48;;;;;;;2.70;1.60;;;;;;;20.94;74.46;100665.52;106592;1270;23935;-56
2023/09/26 09:38:20;;;;;;;5.80;2.50;;;;;;;21.10;74.37;100668.20;106644;1272;25272;-52
2023/09/26 09:40:49;;;;;;;5.70;2.50;;;;;;;21.18;74.06;100659.83;106805;1269;100761;-53
2023/09/26 09:43:19;;;;;;;4.60;2.00;;;;;;;21.26;73.95;100663.29;107223;1269;23874;-56
2023/09/26 09:45:49;;;;;;;5.10;2.50;;;;;;;21.25;73.39;100662.10;106831;1270;101353;-55
2023/09/26 09:48:22;;;;;;;2.20;1.20;;;;;;;21.26;73.20;100662.38;106887;1270;22534;-56
2023/09/26 09:50:54;;;;;;;3.30;1.50;;;;;;;21.34;72.91;100662.50;106891;1269;25568;-55
2023/09/26 09:53:26;;;;;;;5.90;1.70;;;;;;;21.32;72.54;100661.80;106559;1269;100055;-58
2023/09/26 09:55:58;;;;;;;7.30;3.10;;;;;;;21.24;72.25;100661.52;106800;1269;23967;-58
2023/09/26 09:58:28;;;;;;;3.50;1.60;;;;;;;21.22;72.25;100663.41;106808;1269;99271;-58
2023/09/26 10:01:00;;;;;;;3.00;1.50;;;;;;;21.31;72.14;100659.02;106913;1269;24230;-59
2023/09/26 10:03:29;;;;;;;2.10;1.50;;;;;;;21.40;71.94;100660.13;106693;1269;100639;-58
2023/09/26 10:06:02;;;;;;;1.50;0.90;;;;;;;21.49;71.76;100655.66;106889;1269;22526;-58
2023/09/26 10:08:31;;;;;;;3.20;1.20;;;;;;;21.45;71.36;100648.37;107041;1257;24232;-58
2023/09/26 10:11:03;;;;;;;2.50;1.60;;;;;;;21.33;71.04;100644.34;106887;1269;100064;-59
2023/09/26 10:13:34;;;;;;;4.00;1.40;;;;;;;21.29;70.94;100646.95;106692;1269;24375;-58
2023/09/26 10:16:14;;;;;;;2.30;1.30;;;;;;;21.22;70.61;100643.91;106864;1271;100179;-53
2023/09/26 10:18:47;;;;;;;3.10;1.00;;;;;;;21.16;70.40;100638.86;106718;1269;22524;-56
2023/09/26 10:21:20;;;;;;;2.80;1.10;;;;;;;21.27;70.40;100638.98;106549;1256;22519;-57
2023/09/26 10:24:05;;;;;;;2.30;1.60;;;;;;;21.35;70.27;100635.15;106733;1269;22959;-58
2023/09/26 10:26:38;;;;;;;3.90;1.70;;;;;;;21.44;70.00;100635.20;106852;1269;25245;-58
2023/09/26 10:29:25;;;;;;;2.30;1.40;;;;;;;21.43;69.78;100633.13;106846;1270;99938;-57
2023/09/26 10:32:04;;;;;;;3.70;1.40;;;;;;;21.45;69.56;100629.92;106711;1269;22976;-58
2023/09/26 10:34:35;;;;;;;3.00;1.50;;;;;;;21.46;69.38;100630.58;106501;1272;99874;-58
2023/09/26 10:37:26;;;;;;;1.70;1.00;;;;;;;21.56;69.28;100628.88;106766;1269;25247;-57
2023/09/26 10:39:55;;;;;;;2.90;1.60;;;;;;;21.71;68.89;100621.17;106671;1270;101056;-58
2023/09/26 10:42:24;;;;;;;2.60;1.50;;;;;;;21.75;68.54;100627.56;106626;1272;23941;-58
2023/09/26 10:45:14;;;;;;;3.20;1.90;;;;;;;21.88;68.60;100623.85;106562;1265;22613;-58
2023/09/26 10:47:42;;;;;;;2.30;1.70;;;;;;;22.17;68.13;100623.16;107058;1269;99273;-58
2023/09/26 10:50:20;;;;;;;2.90;1.40;;;;;;;22.45;68.23;100621.04;106647;1269;26625;-58
2023/09/26 10:52:49;;;;;;;2.70;1.50;;;;;;;22.66;67.83;100620.05;106726;1267;100029;-58
2023/09/26 10:55:21;;;;;;;4.20;1.50;;;;;;;22.85;67.75;100620.70;106577;1269;22572;-58
2023/09/26 10:57:53;;;;;;;3.60;2.00;;;;;;;22.94;67.21;100616.92;107043;1269;100538;-58
2023/09/26 11:00:22;;;;;;;3.60;1.60;;;;;;;23.02;66.98;100618.38;106908;1263;23057;-58
2023/09/26 11:02:51;;;;;;;2.00;1.10;;;;;;;23.00;66.53;100614.02;106742;1270;22773;-58
2023/09/26 11:05:41;;;;;;;1.40;0.80;;;;;;;22.88;66.21;100612.98;106744;1272;99164;-59
2023/09/26 11:08:10;;;;;;;3.00;1.30;;;;;;;22.87;66.06;100610.40;106855;1269;22943;-57
2023/09/26 11:10:59;;;;;;;1.50;1.00;;;;;;;23.02;66.15;100610.25;106553;1266;99952;-56
2023/09/26 11:13:28;;;;;;;1.60;0.90;;;;;;;23.04;65.32;100612.41;106698;1269;23883;-54
2023/09/26 11:15:57;;;;;;;4.20;1.40;;;;;;;22.89;65.10;100613.81;106584;1269;99511;-56
2023/09/26 11:18:28;;;;;;;2.90;1.00;;;;;;;22.73;64.76;100609.15;106786;1269;22528;-56
2023/09/26 11:21:00;;;;;;;3.40;1.20;;;;;;;22.58;64.52;100611.77;107228;1258;22572;-59
2023/09/26 11:23:49;;;;;;;6.20;2.00;;;;;;;22.56;64.57;100611.61;106637;1270;25413;-57
2023/09/26 11:26:17;;;;;;;4.90;2.20;;;;;;;22.61;64.46;100608.05;106549;1270;23008;-59
2023/09/26 11:28:46;;;;;;;3.00;1.10;;;;;;;22.70;64.42;100606.53;106727;1269;99843;-57
2023/09/26 11:31:17;;;;;;;3.30;1.80;;;;;;;22.66;64.01;100607.08;106792;1269;25469;-59